sensor_id;sensor_type;location;lat;lon;timestamp;P1;durP1;ratioP1;P2;durP2;ratioP2
12631;SDS011;6381;45.748;12.106;2023-04-03T00:00:15;17.13;;;14.60;;
12631;SDS011;6381;45.748;12.106;2023-04-03T00:02:45;17.13;;;14.07;;
12631;SDS011;6381;45.748;12.106;2023-04-03T00:05:14;14.83;;;13.07;;
12631;SDS011;6381;45.748;12.106;2023-04-03T00:07:43;15.80;;;12.90;;
12631;SDS011;6381;45.748;12.106;2023-04-03T00:10:13;15.13;;;11.10;;
12631;SDS011;6381;45.748;12.106;2023-04-03T00:12:42;13.10;;;9.87;;
12631;SDS011;6381;45.748;12.106;2023-04-03T00:15:13;12.27;;;10.00;;
12631;SDS011;6381;45.748;12.106;2023-04-03T00:17:42;12.30;;;9.17;;
12631;SDS011;6381;45.748;12.106;2023-04-03T00:20:12;10.87;;;9.50;;
12631;SDS011;6381;45.748;12.106;2023-04-03T00:22:42;12.33;;;9.43;;
12631;SDS011;6381;45.748;12.106;2023-04-03T00:25:11;11.03;;;9.87;;
12631;SDS011;6381;45.748;12.106;2023-04-03T00:27:41;12.23;;;8.17;;
12631;SDS011;6381;45.748;12.106;2023-04-03T00:30:11;9.67;;;8.07;;
12631;SDS011;6381;45.748;12.106;2023-04-03T00:32:44;12.47;;;8.27;;
12631;SDS011;6381;45.748;12.106;2023-04-03T00:35:16;11.07;;;8.97;;
12631;SDS011;6381;45.748;12.106;2023-04-03T00:37:46;12.47;;;8.20;;
12631;SDS011;6381;45.748;12.106;2023-04-03T00:40:16;8.57;;;6.73;;
12631;SDS011;6381;45.748;12.106;2023-04-03T00:42:46;8.20;;;6.97;;
12631;SDS011;6381;45.748;12.106;2023-04-03T00:45:24;7.93;;;7.00;;
12631;SDS011;6381;45.748;12.106;2023-04-03T00:48:13;10.23;;;7.00;;
12631;SDS011;6381;45.748;12.106;2023-04-03T00:50:46;11.27;;;8.93;;
12631;SDS011;6381;45.748;12.106;2023-04-03T00:53:19;8.47;;;7.30;;
12631;SDS011;6381;45.748;12.106;2023-04-03T00:55:53;6.87;;;6.17;;
12631;SDS011;6381;45.748;12.106;2023-04-03T00:58:25;7.10;;;6.40;;
12631;SDS011;6381;45.748;12.106;2023-04-03T01:01:01;8.43;;;7.03;;
12631;SDS011;6381;45.748;12.106;2023-04-03T01:03:35;9.57;;;7.20;;
12631;SDS011;6381;45.748;12.106;2023-04-03T01:06:05;6.97;;;6.27;;
12631;SDS011;6381;45.748;12.106;2023-04-03T01:08:34;8.23;;;6.83;;
12631;SDS011;6381;45.748;12.106;2023-04-03T01:11:04;7.37;;;6.50;;
12631;SDS011;6381;45.748;12.106;2023-04-03T01:13:33;8.77;;;7.07;;
12631;SDS011;6381;45.748;12.106;2023-04-03T01:16:07;7.53;;;6.70;;
12631;SDS011;6381;45.748;12.106;2023-04-03T01:18:37;7.37;;;6.50;;
12631;SDS011;6381;45.748;12.106;2023-04-03T01:21:25;6.57;;;5.87;;
12631;SDS011;6381;45.748;12.106;2023-04-03T01:24:27;6.60;;;5.90;;
12631;SDS011;6381;45.748;12.106;2023-04-03T01:27:06;7.10;;;6.20;;
12631;SDS011;6381;45.748;12.106;2023-04-03T01:29:39;7.93;;;7.10;;
12631;SDS011;6381;45.748;12.106;2023-04-03T01:32:12;8.07;;;6.63;;
12631;SDS011;6381;45.748;12.106;2023-04-03T01:34:43;7.17;;;5.87;;
12631;SDS011;6381;45.748;12.106;2023-04-03T01:37:12;9.60;;;6.20;;
12631;SDS011;6381;45.748;12.106;2023-04-03T01:39:41;6.97;;;6.23;;
12631;SDS011;6381;45.748;12.106;2023-04-03T01:42:11;7.47;;;5.87;;
12631;SDS011;6381;45.748;12.106;2023-04-03T01:44:42;10.23;;;6.67;;
12631;SDS011;6381;45.748;12.106;2023-04-03T01:47:14;6.20;;;5.60;;
12631;SDS011;6381;45.748;12.106;2023-04-03T01:49:43;6.00;;;5.50;;
12631;SDS011;6381;45.748;12.106;2023-04-03T01:52:13;7.47;;;5.93;;
12631;SDS011;6381;45.748;12.106;2023-04-03T01:54:42;7.47;;;6.20;;
12631;SDS011;6381;45.748;12.106;2023-04-03T01:57:12;8.30;;;5.70;;
12631;SDS011;6381;45.748;12.106;2023-04-03T01:59:43;8.53;;;7.03;;
12631;SDS011;6381;45.748;12.106;2023-04-03T02:02:13;8.40;;;7.53;;
12631;SDS011;6381;45.748;12.106;2023-04-03T02:04:43;8.43;;;7.33;;
12631;SDS011;6381;45.748;12.106;2023-04-03T02:07:13;10.17;;;9.17;;
12631;SDS011;6381;45.748;12.106;2023-04-03T02:09:42;10.30;;;9.07;;
12631;SDS011;6381;45.748;12.106;2023-04-03T02:12:12;12.80;;;9.07;;
12631;SDS011;6381;45.748;12.106;2023-04-03T02:14:42;10.53;;;9.27;;
12631;SDS011;6381;45.748;12.106;2023-04-03T02:17:13;11.13;;;9.70;;
12631;SDS011;6381;45.748;12.106;2023-04-03T02:19:43;10.03;;;9.00;;
12631;SDS011;6381;45.748;12.106;2023-04-03T02:22:12;10.27;;;8.63;;
12631;SDS011;6381;45.748;12.106;2023-04-03T02:24:42;10.27;;;9.10;;
12631;SDS011;6381;45.748;12.106;2023-04-03T02:27:11;10.00;;;9.10;;
12631;SDS011;6381;45.748;12.106;2023-04-03T02:29:41;10.33;;;9.23;;
12631;SDS011;6381;45.748;12.106;2023-04-03T02:32:10;11.07;;;8.83;;
12631;SDS011;6381;45.748;12.106;2023-04-03T02:34:42;10.33;;;9.03;;
12631;SDS011;6381;45.748;12.106;2023-04-03T02:37:13;9.43;;;8.43;;
12631;SDS011;6381;45.748;12.106;2023-04-03T02:39:45;11.07;;;8.60;;
12631;SDS011;6381;45.748;12.106;2023-04-03T02:42:14;9.07;;;8.13;;
12631;SDS011;6381;45.748;12.106;2023-04-03T02:44:43;10.27;;;8.63;;
12631;SDS011;6381;45.748;12.106;2023-04-03T02:47:12;8.97;;;8.07;;
12631;SDS011;6381;45.748;12.106;2023-04-03T02:49:44;8.70;;;7.80;;
12631;SDS011;6381;45.748;12.106;2023-04-03T02:52:13;9.73;;;8.57;;
12631;SDS011;6381;45.748;12.106;2023-04-03T02:54:43;9.73;;;8.20;;
12631;SDS011;6381;45.748;12.106;2023-04-03T02:57:12;9.97;;;7.93;;
12631;SDS011;6381;45.748;12.106;2023-04-03T02:59:42;8.00;;;7.20;;
12631;SDS011;6381;45.748;12.106;2023-04-03T03:02:11;9.37;;;8.00;;
12631;SDS011;6381;45.748;12.106;2023-04-03T03:04:41;11.17;;;7.43;;
12631;SDS011;6381;45.748;12.106;2023-04-03T03:07:12;7.97;;;7.07;;
12631;SDS011;6381;45.748;12.106;2023-04-03T03:09:42;8.93;;;7.37;;
12631;SDS011;6381;45.748;12.106;2023-04-03T03:12:11;7.67;;;6.83;;
12631;SDS011;6381;45.748;12.106;2023-04-03T03:14:40;7.93;;;6.20;;
12631;SDS011;6381;45.748;12.106;2023-04-03T03:17:09;8.97;;;6.20;;
12631;SDS011;6381;45.748;12.106;2023-04-03T03:19:39;6.83;;;6.00;;
12631;SDS011;6381;45.748;12.106;2023-04-03T03:22:08;7.10;;;6.10;;
12631;SDS011;6381;45.748;12.106;2023-04-03T03:24:39;6.27;;;5.67;;
12631;SDS011;6381;45.748;12.106;2023-04-03T03:27:08;6.73;;;5.67;;
12631;SDS011;6381;45.748;12.106;2023-04-03T03:29:39;6.13;;;5.53;;
12631;SDS011;6381;45.748;12.106;2023-04-03T03:32:08;8.00;;;5.90;;
12631;SDS011;6381;45.748;12.106;2023-04-03T03:34:38;5.90;;;5.30;;
12631;SDS011;6381;45.748;12.106;2023-04-03T03:37:07;7.20;;;5.97;;
12631;SDS011;6381;45.748;12.106;2023-04-03T03:39:36;7.03;;;5.73;;
12631;SDS011;6381;45.748;12.106;2023-04-03T03:42:07;6.53;;;5.60;;
12631;SDS011;6381;45.748;12.106;2023-04-03T03:44:37;6.70;;;5.50;;
12631;SDS011;6381;45.748;12.106;2023-04-03T03:47:06;10.90;;;6.90;;
12631;SDS011;6381;45.748;12.106;2023-04-03T03:49:38;12.40;;;8.10;;
12631;SDS011;6381;45.748;12.106;2023-04-03T03:52:07;11.13;;;8.30;;
12631;SDS011;6381;45.748;12.106;2023-04-03T03:54:39;12.00;;;7.57;;
12631;SDS011;6381;45.748;12.106;2023-04-03T03:57:09;9.00;;;6.40;;
12631;SDS011;6381;45.748;12.106;2023-04-03T03:59:38;6.27;;;5.67;;
12631;SDS011;6381;45.748;12.106;2023-04-03T04:02:08;6.77;;;5.93;;
12631;SDS011;6381;45.748;12.106;2023-04-03T04:04:38;6.90;;;5.50;;
12631;SDS011;6381;45.748;12.106;2023-04-03T04:07:08;7.03;;;6.27;;
12631;SDS011;6381;45.748;12.106;2023-04-03T04:09:39;8.53;;;5.47;;
12631;SDS011;6381;45.748;12.106;2023-04-03T04:12:09;8.30;;;6.57;;
12631;SDS011;6381;45.748;12.106;2023-04-03T04:14:38;8.93;;;6.07;;
12631;SDS011;6381;45.748;12.106;2023-04-03T04:17:09;7.93;;;5.90;;
12631;SDS011;6381;45.748;12.106;2023-04-03T04:19:38;7.17;;;6.07;;
12631;SDS011;6381;45.748;12.106;2023-04-03T04:22:08;6.63;;;5.70;;
12631;SDS011;6381;45.748;12.106;2023-04-03T04:24:37;6.30;;;4.80;;
12631;SDS011;6381;45.748;12.106;2023-04-03T04:27:08;10.43;;;4.77;;
12631;SDS011;6381;45.748;12.106;2023-04-03T04:29:38;5.63;;;5.00;;
12631;SDS011;6381;45.748;12.106;2023-04-03T04:32:10;6.43;;;4.90;;
12631;SDS011;6381;45.748;12.106;2023-04-03T04:34:40;5.53;;;5.00;;
12631;SDS011;6381;45.748;12.106;2023-04-03T04:37:10;6.67;;;6.07;;
12631;SDS011;6381;45.748;12.106;2023-04-03T04:39:41;6.73;;;5.27;;
12631;SDS011;6381;45.748;12.106;2023-04-03T04:42:10;6.37;;;4.93;;
12631;SDS011;6381;45.748;12.106;2023-04-03T04:44:45;7.90;;;5.40;;
12631;SDS011;6381;45.748;12.106;2023-04-03T04:47:14;5.57;;;4.93;;
12631;SDS011;6381;45.748;12.106;2023-04-03T04:49:44;6.57;;;4.80;;
12631;SDS011;6381;45.748;12.106;2023-04-03T04:52:14;6.23;;;5.43;;
12631;SDS011;6381;45.748;12.106;2023-04-03T04:54:45;7.63;;;5.83;;
12631;SDS011;6381;45.748;12.106;2023-04-03T04:57:15;5.97;;;5.07;;
12631;SDS011;6381;45.748;12.106;2023-04-03T04:59:46;7.43;;;5.40;;
12631;SDS011;6381;45.748;12.106;2023-04-03T05:02:15;7.90;;;5.87;;
12631;SDS011;6381;45.748;12.106;2023-04-03T05:04:45;9.93;;;5.73;;
12631;SDS011;6381;45.748;12.106;2023-04-03T05:07:21;10.47;;;5.17;;
12631;SDS011;6381;45.748;12.106;2023-04-03T05:09:52;7.17;;;5.10;;
12631;SDS011;6381;45.748;12.106;2023-04-03T05:12:22;9.40;;;6.30;;
12631;SDS011;6381;45.748;12.106;2023-04-03T05:14:57;10.50;;;6.20;;
12631;SDS011;6381;45.748;12.106;2023-04-03T05:17:28;9.67;;;6.27;;
12631;SDS011;6381;45.748;12.106;2023-04-03T05:19:59;6.13;;;5.50;;
12631;SDS011;6381;45.748;12.106;2023-04-03T05:22:28;6.47;;;5.63;;
12631;SDS011;6381;45.748;12.106;2023-04-03T05:25:05;8.63;;;5.87;;
12631;SDS011;6381;45.748;12.106;2023-04-03T05:27:37;8.67;;;5.90;;
12631;SDS011;6381;45.748;12.106;2023-04-03T05:30:08;13.47;;;6.43;;
12631;SDS011;6381;45.748;12.106;2023-04-03T05:32:40;6.03;;;5.53;;
12631;SDS011;6381;45.748;12.106;2023-04-03T05:35:18;8.80;;;6.10;;
12631;SDS011;6381;45.748;12.106;2023-04-03T05:37:51;9.40;;;6.47;;
12631;SDS011;6381;45.748;12.106;2023-04-03T05:40:22;7.03;;;6.00;;
12631;SDS011;6381;45.748;12.106;2023-04-03T05:42:55;6.47;;;5.77;;
12631;SDS011;6381;45.748;12.106;2023-04-03T05:45:28;7.57;;;5.87;;
12631;SDS011;6381;45.748;12.106;2023-04-03T05:47:58;5.10;;;4.47;;
12631;SDS011;6381;45.748;12.106;2023-04-03T05:50:29;5.77;;;4.60;;
12631;SDS011;6381;45.748;12.106;2023-04-03T05:52:59;4.43;;;4.03;;
12631;SDS011;6381;45.748;12.106;2023-04-03T05:55:33;5.37;;;4.60;;
12631;SDS011;6381;45.748;12.106;2023-04-03T05:58:03;5.70;;;4.10;;
12631;SDS011;6381;45.748;12.106;2023-04-03T06:00:35;6.40;;;5.10;;
12631;SDS011;6381;45.748;12.106;2023-04-03T06:03:04;7.50;;;5.47;;
12631;SDS011;6381;45.748;12.106;2023-04-03T06:05:34;7.90;;;5.33;;
12631;SDS011;6381;45.748;12.106;2023-04-03T06:08:04;6.63;;;4.97;;
12631;SDS011;6381;45.748;12.106;2023-04-03T06:10:35;7.50;;;5.00;;
12631;SDS011;6381;45.748;12.106;2023-04-03T06:13:05;5.53;;;4.40;;
12631;SDS011;6381;45.748;12.106;2023-04-03T06:15:35;8.60;;;4.27;;
12631;SDS011;6381;45.748;12.106;2023-04-03T06:18:08;5.87;;;4.37;;
12631;SDS011;6381;45.748;12.106;2023-04-03T06:20:37;5.30;;;4.37;;
12631;SDS011;6381;45.748;12.106;2023-04-03T06:23:07;3.60;;;3.30;;
12631;SDS011;6381;45.748;12.106;2023-04-03T06:25:38;7.30;;;3.33;;
12631;SDS011;6381;45.748;12.106;2023-04-03T06:28:09;3.37;;;3.07;;
12631;SDS011;6381;45.748;12.106;2023-04-03T06:30:38;3.13;;;2.83;;
12631;SDS011;6381;45.748;12.106;2023-04-03T06:33:07;3.63;;;3.33;;
12631;SDS011;6381;45.748;12.106;2023-04-03T06:35:37;4.03;;;2.93;;
12631;SDS011;6381;45.748;12.106;2023-04-03T06:38:07;3.60;;;3.30;;
12631;SDS011;6381;45.748;12.106;2023-04-03T06:40:39;4.27;;;3.47;;
12631;SDS011;6381;45.748;12.106;2023-04-03T06:43:09;3.87;;;3.30;;
12631;SDS011;6381;45.748;12.106;2023-04-03T06:45:38;4.60;;;3.50;;
12631;SDS011;6381;45.748;12.106;2023-04-03T06:48:07;7.47;;;3.50;;
12631;SDS011;6381;45.748;12.106;2023-04-03T06:50:37;5.73;;;3.80;;
12631;SDS011;6381;45.748;12.106;2023-04-03T06:53:07;4.30;;;3.60;;
12631;SDS011;6381;45.748;12.106;2023-04-03T06:55:37;4.73;;;3.53;;
12631;SDS011;6381;45.748;12.106;2023-04-03T06:58:08;4.33;;;3.40;;
12631;SDS011;6381;45.748;12.106;2023-04-03T07:00:37;6.13;;;3.50;;
12631;SDS011;6381;45.748;12.106;2023-04-03T07:03:06;4.30;;;3.27;;
12631;SDS011;6381;45.748;12.106;2023-04-03T07:05:36;5.63;;;3.70;;
12631;SDS011;6381;45.748;12.106;2023-04-03T07:08:06;4.90;;;3.20;;
12631;SDS011;6381;45.748;12.106;2023-04-03T07:10:35;5.87;;;4.23;;
12631;SDS011;6381;45.748;12.106;2023-04-03T07:13:08;4.00;;;3.20;;
12631;SDS011;6381;45.748;12.106;2023-04-03T07:15:37;6.77;;;3.20;;
12631;SDS011;6381;45.748;12.106;2023-04-03T07:18:07;3.60;;;2.80;;
12631;SDS011;6381;45.748;12.106;2023-04-03T07:20:36;5.50;;;3.17;;
12631;SDS011;6381;45.748;12.106;2023-04-03T07:23:07;3.97;;;3.10;;
12631;SDS011;6381;45.748;12.106;2023-04-03T07:25:36;3.93;;;3.27;;
12631;SDS011;6381;45.748;12.106;2023-04-03T07:28:05;4.67;;;3.13;;
12631;SDS011;6381;45.748;12.106;2023-04-03T07:30:41;5.23;;;3.13;;
12631;SDS011;6381;45.748;12.106;2023-04-03T07:33:12;5.57;;;3.37;;
12631;SDS011;6381;45.748;12.106;2023-04-03T07:35:42;8.93;;;3.50;;
12631;SDS011;6381;45.748;12.106;2023-04-03T07:38:12;4.30;;;3.10;;
12631;SDS011;6381;45.748;12.106;2023-04-03T07:40:45;4.83;;;3.03;;
12631;SDS011;6381;45.748;12.106;2023-04-03T07:43:17;5.73;;;3.80;;
12631;SDS011;6381;45.748;12.106;2023-04-03T07:45:47;4.83;;;3.43;;
12631;SDS011;6381;45.748;12.106;2023-04-03T07:48:18;3.60;;;3.30;;
12631;SDS011;6381;45.748;12.106;2023-04-03T07:50:48;4.40;;;3.30;;
12631;SDS011;6381;45.748;12.106;2023-04-03T07:53:17;4.87;;;3.20;;
12631;SDS011;6381;45.748;12.106;2023-04-03T07:55:47;3.23;;;2.90;;
12631;SDS011;6381;45.748;12.106;2023-04-03T07:58:24;3.23;;;2.90;;
12631;SDS011;6381;45.748;12.106;2023-04-03T08:00:53;3.93;;;3.10;;
12631;SDS011;6381;45.748;12.106;2023-04-03T08:03:23;3.77;;;3.20;;
12631;SDS011;6381;45.748;12.106;2023-04-03T08:05:52;3.03;;;2.73;;
12631;SDS011;6381;45.748;12.106;2023-04-03T08:08:22;3.43;;;2.93;;
12631;SDS011;6381;45.748;12.106;2023-04-03T08:10:52;5.03;;;3.60;;
12631;SDS011;6381;45.748;12.106;2023-04-03T08:13:23;3.13;;;2.83;;
12631;SDS011;6381;45.748;12.106;2023-04-03T08:15:53;3.93;;;2.90;;
12631;SDS011;6381;45.748;12.106;2023-04-03T08:18:24;3.07;;;2.77;;
12631;SDS011;6381;45.748;12.106;2023-04-03T08:20:53;3.60;;;2.80;;
12631;SDS011;6381;45.748;12.106;2023-04-03T08:23:23;3.37;;;2.90;;
12631;SDS011;6381;45.748;12.106;2023-04-03T08:25:52;3.60;;;2.90;;
12631;SDS011;6381;45.748;12.106;2023-04-03T08:28:21;3.30;;;2.93;;
12631;SDS011;6381;45.748;12.106;2023-04-03T08:30:52;4.97;;;3.20;;
12631;SDS011;6381;45.748;12.106;2023-04-03T08:33:22;3.10;;;2.80;;
12631;SDS011;6381;45.748;12.106;2023-04-03T08:35:51;4.03;;;2.67;;
12631;SDS011;6381;45.748;12.106;2023-04-03T08:38:20;3.63;;;2.90;;
12631;SDS011;6381;45.748;12.106;2023-04-03T08:40:59;3.10;;;2.80;;
12631;SDS011;6381;45.748;12.106;2023-04-03T08:43:33;2.80;;;2.57;;
12631;SDS011;6381;45.748;12.106;2023-04-03T08:46:11;2.90;;;2.70;;
12631;SDS011;6381;45.748;12.106;2023-04-03T08:48:43;3.40;;;2.63;;
12631;SDS011;6381;45.748;12.106;2023-04-03T08:51:14;5.43;;;2.80;;
12631;SDS011;6381;45.748;12.106;2023-04-03T08:53:46;3.30;;;3.00;;
12631;SDS011;6381;45.748;12.106;2023-04-03T08:56:27;2.77;;;2.57;;
12631;SDS011;6381;45.748;12.106;2023-04-03T08:59:04;3.13;;;2.63;;
12631;SDS011;6381;45.748;12.106;2023-04-03T09:01:39;3.90;;;2.97;;
12631;SDS011;6381;45.748;12.106;2023-04-03T09:04:10;3.97;;;2.90;;
12631;SDS011;6381;45.748;12.106;2023-04-03T09:06:41;8.57;;;3.83;;
12631;SDS011;6381;45.748;12.106;2023-04-03T09:09:18;4.10;;;3.17;;
12631;SDS011;6381;45.748;12.106;2023-04-03T09:11:59;5.00;;;2.80;;
12631;SDS011;6381;45.748;12.106;2023-04-03T09:14:38;4.17;;;3.03;;
12631;SDS011;6381;45.748;12.106;2023-04-03T09:17:12;6.33;;;3.10;;
12631;SDS011;6381;45.748;12.106;2023-04-03T09:19:47;4.23;;;2.50;;
12631;SDS011;6381;45.748;12.106;2023-04-03T09:22:24;3.30;;;3.00;;
12631;SDS011;6381;45.748;12.106;2023-04-03T09:24:57;3.30;;;2.87;;
12631;SDS011;6381;45.748;12.106;2023-04-03T09:27:29;3.20;;;2.90;;
12631;SDS011;6381;45.748;12.106;2023-04-03T09:30:00;3.17;;;2.87;;
12631;SDS011;6381;45.748;12.106;2023-04-03T09:32:31;4.00;;;3.20;;
12631;SDS011;6381;45.748;12.106;2023-04-03T09:35:03;3.73;;;3.10;;
12631;SDS011;6381;45.748;12.106;2023-04-03T09:37:58;3.20;;;2.90;;
12631;SDS011;6381;45.748;12.106;2023-04-03T09:40:29;3.00;;;2.70;;
12631;SDS011;6381;45.748;12.106;2023-04-03T09:45:51;3.23;;;2.93;;
12631;SDS011;6381;45.748;12.106;2023-04-03T09:48:21;4.37;;;3.30;;
12631;SDS011;6381;45.748;12.106;2023-04-03T09:50:58;3.23;;;2.93;;
12631;SDS011;6381;45.748;12.106;2023-04-03T09:53:31;3.83;;;3.37;;
12631;SDS011;6381;45.748;12.106;2023-04-03T09:56:05;4.00;;;3.47;;
12631;SDS011;6381;45.748;12.106;2023-04-03T09:58:49;3.43;;;3.00;;
12631;SDS011;6381;45.748;12.106;2023-04-03T10:01:24;6.07;;;3.40;;
12631;SDS011;6381;45.748;12.106;2023-04-03T10:04:06;3.50;;;3.20;;
12631;SDS011;6381;45.748;12.106;2023-04-03T10:06:39;3.90;;;3.50;;
12631;SDS011;6381;45.748;12.106;2023-04-03T10:09:18;3.78;;;3.47;;
12631;SDS011;6381;45.748;12.106;2023-04-03T10:12:00;4.93;;;4.53;;
12631;SDS011;6381;45.748;12.106;2023-04-03T10:14:32;4.23;;;3.83;;
12631;SDS011;6381;45.748;12.106;2023-04-03T10:17:09;5.00;;;3.60;;
12631;SDS011;6381;45.748;12.106;2023-04-03T10:19:48;3.60;;;3.30;;
12631;SDS011;6381;45.748;12.106;2023-04-03T10:22:23;3.83;;;3.53;;
12631;SDS011;6381;45.748;12.106;2023-04-03T10:25:01;3.93;;;3.40;;
12631;SDS011;6381;45.748;12.106;2023-04-03T10:27:44;3.83;;;3.40;;
12631;SDS011;6381;45.748;12.106;2023-04-03T10:30:27;3.60;;;3.30;;
12631;SDS011;6381;45.748;12.106;2023-04-03T10:33:11;3.92;;;3.13;;
12631;SDS011;6381;45.748;12.106;2023-04-03T10:35:53;4.10;;;3.70;;
12631;SDS011;6381;45.748;12.106;2023-04-03T10:38:33;3.92;;;3.63;;
12631;SDS011;6381;45.748;12.106;2023-04-03T10:41:11;5.63;;;3.20;;
12631;SDS011;6381;45.748;12.106;2023-04-03T10:43:47;3.88;;;3.53;;
12631;SDS011;6381;45.748;12.106;2023-04-03T10:46:23;4.25;;;3.85;;
12631;SDS011;6381;45.748;12.106;2023-04-03T10:49:08;4.13;;;3.80;;
12631;SDS011;6381;45.748;12.106;2023-04-03T10:51:48;3.95;;;3.65;;
12631;SDS011;6381;45.748;12.106;2023-04-03T10:54:24;5.28;;;4.55;;
12631;SDS011;6381;45.748;12.106;2023-04-03T10:56:55;4.72;;;4.03;;
12631;SDS011;6381;45.748;12.106;2023-04-03T10:59:38;4.40;;;4.00;;
12631;SDS011;6381;45.748;12.106;2023-04-03T11:02:14;4.47;;;4.07;;
12631;SDS011;6381;45.748;12.106;2023-04-03T11:04:52;4.13;;;3.72;;
12631;SDS011;6381;45.748;12.106;2023-04-03T11:07:24;4.40;;;4.00;;
12631;SDS011;6381;45.748;12.106;2023-04-03T11:09:59;3.83;;;3.53;;
12631;SDS011;6381;45.748;12.106;2023-04-03T11:12:33;4.57;;;4.18;;
12631;SDS011;6381;45.748;12.106;2023-04-03T11:15:11;4.45;;;4.05;;
12631;SDS011;6381;45.748;12.106;2023-04-03T11:17:44;3.65;;;3.35;;
12631;SDS011;6381;45.748;12.106;2023-04-03T11:20:19;5.55;;;3.95;;
12631;SDS011;6381;45.748;12.106;2023-04-03T11:22:57;5.00;;;4.60;;
12631;SDS011;6381;45.748;12.106;2023-04-03T11:25:30;4.53;;;4.13;;
12631;SDS011;6381;45.748;12.106;2023-04-03T11:28:03;4.97;;;4.40;;
12631;SDS011;6381;45.748;12.106;2023-04-03T11:30:37;4.80;;;4.40;;
12631;SDS011;6381;45.748;12.106;2023-04-03T11:33:21;4.55;;;4.15;;
12631;SDS011;6381;45.748;12.106;2023-04-03T11:36:03;4.50;;;4.10;;
12631;SDS011;6381;45.748;12.106;2023-04-03T11:38:51;4.53;;;4.13;;
12631;SDS011;6381;45.748;12.106;2023-04-03T11:41:25;4.20;;;3.80;;
12631;SDS011;6381;45.748;12.106;2023-04-03T11:43:56;4.30;;;3.90;;
12631;SDS011;6381;45.748;12.106;2023-04-03T11:55:53;5.15;;;4.65;;
12631;SDS011;6381;45.748;12.106;2023-04-03T11:58:24;5.85;;;5.07;;
12631;SDS011;6381;45.748;12.106;2023-04-03T12:00:59;5.00;;;4.28;;
12631;SDS011;6381;45.748;12.106;2023-04-03T12:12:38;4.60;;;3.42;;
12631;SDS011;6381;45.748;12.106;2023-04-03T12:15:41;4.57;;;3.90;;
12631;SDS011;6381;45.748;12.106;2023-04-03T12:21:12;4.30;;;3.90;;
12631;SDS011;6381;45.748;12.106;2023-04-03T12:23:59;3.53;;;3.20;;
12631;SDS011;6381;45.748;12.106;2023-04-03T12:26:34;4.25;;;3.88;;
12631;SDS011;6381;45.748;12.106;2023-04-03T12:29:17;4.40;;;4.00;;
12631;SDS011;6381;45.748;12.106;2023-04-03T12:31:55;4.10;;;3.70;;
12631;SDS011;6381;45.748;12.106;2023-04-03T12:34:41;5.30;;;3.53;;
12631;SDS011;6381;45.748;12.106;2023-04-03T12:37:39;5.43;;;3.90;;
12631;SDS011;6381;45.748;12.106;2023-04-03T12:40:21;4.13;;;3.50;;
12631;SDS011;6381;45.748;12.106;2023-04-03T12:43:05;3.78;;;3.45;;
12631;SDS011;6381;45.748;12.106;2023-04-03T12:45:46;3.78;;;3.47;;
12631;SDS011;6381;45.748;12.106;2023-04-03T12:48:22;3.25;;;2.97;;
12631;SDS011;6381;45.748;12.106;2023-04-03T12:50:54;3.47;;;2.83;;
12631;SDS011;6381;45.748;12.106;2023-04-03T12:53:24;4.72;;;3.35;;
12631;SDS011;6381;45.748;12.106;2023-04-03T12:55:57;2.80;;;2.60;;
12631;SDS011;6381;45.748;12.106;2023-04-03T12:58:47;3.55;;;3.10;;
12631;SDS011;6381;45.748;12.106;2023-04-03T13:01:18;2.67;;;2.47;;
12631;SDS011;6381;45.748;12.106;2023-04-03T13:03:52;3.78;;;3.47;;
12631;SDS011;6381;45.748;12.106;2023-04-03T13:06:24;3.35;;;3.05;;
12631;SDS011;6381;45.748;12.106;2023-04-03T13:08:57;3.50;;;3.20;;
12631;SDS011;6381;45.748;12.106;2023-04-03T13:11:30;5.82;;;3.25;;
12631;SDS011;6381;45.748;12.106;2023-04-03T13:14:14;3.30;;;2.85;;
12631;SDS011;6381;45.748;12.106;2023-04-03T13:16:52;3.40;;;3.10;;
12631;SDS011;6381;45.748;12.106;2023-04-03T13:19:24;3.30;;;3.00;;
12631;SDS011;6381;45.748;12.106;2023-04-03T13:21:57;4.47;;;2.90;;
12631;SDS011;6381;45.748;12.106;2023-04-03T13:24:30;3.35;;;3.05;;
12631;SDS011;6381;45.748;12.106;2023-04-03T13:27:03;3.30;;;3.00;;
12631;SDS011;6381;45.748;12.106;2023-04-03T13:29:35;4.50;;;3.00;;
12631;SDS011;6381;45.748;12.106;2023-04-03T13:32:06;3.03;;;2.75;;
12631;SDS011;6381;45.748;12.106;2023-04-03T13:34:38;3.92;;;2.83;;
12631;SDS011;6381;45.748;12.106;2023-04-03T13:37:19;7.93;;;5.22;;
12631;SDS011;6381;45.748;12.106;2023-04-03T13:39:58;2.95;;;2.65;;
12631;SDS011;6381;45.748;12.106;2023-04-03T13:42:31;7.43;;;5.53;;
12631;SDS011;6381;45.748;12.106;2023-04-03T13:45:16;4.28;;;3.10;;
12631;SDS011;6381;45.748;12.106;2023-04-03T13:47:48;2.83;;;2.55;;
12631;SDS011;6381;45.748;12.106;2023-04-03T13:50:19;4.10;;;2.63;;
12631;SDS011;6381;45.748;12.106;2023-04-03T13:52:51;2.72;;;2.30;;
12631;SDS011;6381;45.748;12.106;2023-04-03T13:55:22;4.85;;;3.03;;
12631;SDS011;6381;45.748;12.106;2023-04-03T13:57:54;3.90;;;2.60;;
12631;SDS011;6381;45.748;12.106;2023-04-03T14:00:32;2.65;;;2.45;;
12631;SDS011;6381;45.748;12.106;2023-04-03T14:03:12;2.70;;;2.50;;
12631;SDS011;6381;45.748;12.106;2023-04-03T14:05:42;4.28;;;2.80;;
12631;SDS011;6381;45.748;12.106;2023-04-03T14:08:12;3.05;;;2.20;;
12631;SDS011;6381;45.748;12.106;2023-04-03T14:10:42;2.90;;;2.53;;
12631;SDS011;6381;45.748;12.106;2023-04-03T14:13:11;3.83;;;2.92;;
12631;SDS011;6381;45.748;12.106;2023-04-03T14:15:45;4.20;;;2.63;;
12631;SDS011;6381;45.748;12.106;2023-04-03T14:18:19;3.15;;;2.85;;
12631;SDS011;6381;45.748;12.106;2023-04-03T14:20:49;2.85;;;2.28;;
12631;SDS011;6381;45.748;12.106;2023-04-03T14:23:18;4.15;;;2.25;;
12631;SDS011;6381;45.748;12.106;2023-04-03T14:25:47;3.10;;;2.25;;
12631;SDS011;6381;45.748;12.106;2023-04-03T14:28:18;3.70;;;2.42;;
12631;SDS011;6381;45.748;12.106;2023-04-03T14:30:50;3.17;;;2.60;;
12631;SDS011;6381;45.748;12.106;2023-04-03T14:33:20;4.85;;;2.55;;
12631;SDS011;6381;45.748;12.106;2023-04-03T14:35:50;2.55;;;2.35;;
12631;SDS011;6381;45.748;12.106;2023-04-03T14:38:24;4.65;;;2.58;;
12631;SDS011;6381;45.748;12.106;2023-04-03T14:40:54;3.15;;;2.60;;
12631;SDS011;6381;45.748;12.106;2023-04-03T14:43:41;2.85;;;2.13;;
12631;SDS011;6381;45.748;12.106;2023-04-03T14:46:14;4.30;;;2.10;;
12631;SDS011;6381;45.748;12.106;2023-04-03T14:48:47;2.70;;;2.05;;
12631;SDS011;6381;45.748;12.106;2023-04-03T14:51:16;2.63;;;2.40;;
12631;SDS011;6381;45.748;12.106;2023-04-03T14:53:45;4.22;;;2.50;;
12631;SDS011;6381;45.748;12.106;2023-04-03T14:56:17;3.22;;;2.15;;
12631;SDS011;6381;45.748;12.106;2023-04-03T14:58:50;10.07;;;2.70;;
12631;SDS011;6381;45.748;12.106;2023-04-03T15:01:25;6.47;;;2.33;;
12631;SDS011;6381;45.748;12.106;2023-04-03T15:03:55;7.47;;;2.47;;
12631;SDS011;6381;45.748;12.106;2023-04-03T15:06:25;5.30;;;2.28;;
12631;SDS011;6381;45.748;12.106;2023-04-03T15:08:55;6.00;;;2.47;;
12631;SDS011;6381;45.748;12.106;2023-04-03T15:11:24;6.97;;;3.42;;
12631;SDS011;6381;45.748;12.106;2023-04-03T15:13:54;9.93;;;2.60;;
12631;SDS011;6381;45.748;12.106;2023-04-03T15:16:24;7.75;;;1.90;;
12631;SDS011;6381;45.748;12.106;2023-04-03T15:18:55;6.03;;;2.50;;
12631;SDS011;6381;45.748;12.106;2023-04-03T15:21:24;4.00;;;2.00;;
12631;SDS011;6381;45.748;12.106;2023-04-03T15:23:53;9.93;;;2.17;;
12631;SDS011;6381;45.748;12.106;2023-04-03T15:26:23;6.57;;;1.90;;
12631;SDS011;6381;45.748;12.106;2023-04-03T15:28:52;4.18;;;1.63;;
12631;SDS011;6381;45.748;12.106;2023-04-03T15:31:22;5.68;;;2.00;;
12631;SDS011;6381;45.748;12.106;2023-04-03T15:33:53;7.15;;;1.90;;
12631;SDS011;6381;45.748;12.106;2023-04-03T15:36:22;5.88;;;2.33;;
12631;SDS011;6381;45.748;12.106;2023-04-03T15:39:00;8.10;;;2.28;;
12631;SDS011;6381;45.748;12.106;2023-04-03T15:41:29;5.13;;;2.13;;